Weather at Selçuk Efes Airport

Public forecast

Using degrees Celsius for public forecast. Weather courtesy of forecast.io.

Closest aviation weather report (METAR) to Selçuk Efes Airport

Closest report is Adnan Menderes International Airport, 22.1 nm (40.9 km) NNW. Retrieved 2022/01/28 05:20 UTC (39 minutes ago):

LTBJ 280520Z VRB02KT 9999 SCT030 BKN080 01/M04 Q1022 NOSIG RMK RWY16 20004KT

Closest aviation forecast (TAF) to Selçuk Efes Airport

Closest forecast is Adnan Menderes International Airport, 22.1 nm (40.9 km) NNW. Retrieved 2022-01-28 00:03 UTC (6 hours ago):

TAF LTBJ 272240Z 2800/2824 VRB02KT CAVOK BECMG 2800/2803 FEW030 SCT080 PROB40 2803/2806 4000 BR BECMG 2806/2809 CAVOK BECMG 2809/2812 SCT030